createdAt,value
2023-03-11T00:00:27.344Z,4.42
2023-03-11T00:01:27.997Z,4.44
2023-03-11T00:02:27.277Z,4.41
2023-03-11T00:03:27.241Z,4.40
2023-03-11T00:04:28.144Z,4.40
2023-03-11T00:05:27.263Z,4.37
2023-03-11T00:06:27.149Z,4.32
2023-03-11T00:07:27.164Z,4.34
2023-03-11T00:08:27.146Z,4.30
2023-03-11T00:09:27.148Z,4.30
2023-03-11T00:10:30.006Z,4.26
2023-03-11T00:11:28.023Z,4.24
2023-03-11T00:12:27.065Z,4.23
2023-03-11T00:13:27.091Z,4.19
2023-03-11T00:14:27.052Z,4.17
2023-03-11T00:15:27.980Z,4.14
2023-03-11T00:16:27.997Z,4.06
2023-03-11T00:17:26.995Z,4.04
2023-03-11T00:18:27.122Z,3.99
2023-03-11T00:19:27.039Z,3.99
2023-03-11T00:20:27.905Z,3.95
2023-03-11T00:21:26.948Z,3.91
2023-03-11T00:22:26.920Z,3.87
2023-03-11T00:23:26.926Z,3.87
2023-03-11T00:24:26.957Z,3.87
2023-03-11T00:25:26.870Z,3.87
2023-03-11T00:26:27.815Z,3.87
2023-03-11T00:27:26.893Z,3.86
2023-03-11T00:28:26.947Z,3.83
2023-03-11T00:29:27.847Z,3.83
2023-03-11T00:30:26.905Z,3.80
2023-03-11T00:31:27.802Z,3.81
2023-03-11T00:32:26.849Z,3.80
2023-03-11T00:33:26.838Z,3.77
2023-03-11T00:34:26.899Z,3.78
2023-03-11T00:35:26.872Z,3.78
2023-03-11T00:36:28.643Z,3.80
2023-03-11T00:37:26.754Z,3.78
2023-03-11T00:38:26.790Z,3.80
2023-03-11T00:39:26.749Z,3.81
2023-03-11T00:40:26.734Z,3.80
2023-03-11T00:41:27.648Z,3.78
2023-03-11T00:42:26.755Z,3.78
2023-03-11T00:43:26.825Z,3.77
2023-03-11T00:44:26.688Z,3.77
2023-03-11T00:45:26.735Z,3.77
2023-03-11T00:46:27.759Z,3.77
2023-03-11T00:47:28.512Z,3.77
2023-03-11T00:48:27.656Z,3.74
2023-03-11T00:49:26.620Z,3.73
2023-03-11T00:50:26.641Z,3.70
2023-03-11T00:51:26.615Z,3.69
2023-03-11T00:52:26.563Z,3.66
2023-03-11T00:53:27.460Z,3.65
2023-03-11T00:54:26.537Z,3.65
2023-03-11T00:55:26.607Z,3.63
2023-03-11T00:56:26.510Z,3.65
2023-03-11T00:57:26.628Z,3.66
2023-03-11T00:58:26.475Z,3.65
2023-03-11T00:59:27.396Z,3.62
2023-03-11T01:00:26.467Z,3.60
2023-03-11T01:01:26.527Z,3.59
2023-03-11T01:02:26.428Z,3.59
2023-03-11T01:03:26.409Z,3.59
2023-03-11T01:04:27.438Z,3.56
2023-03-11T01:05:26.396Z,3.56
2023-03-11T01:06:32.745Z,3.55
2023-03-11T01:07:27.913Z,3.55
2023-03-11T01:08:26.343Z,3.51
2023-03-11T01:09:27.296Z,3.51
2023-03-11T01:10:26.313Z,3.50
2023-03-11T01:11:26.319Z,3.45
2023-03-11T01:12:26.349Z,3.44
2023-03-11T01:13:26.301Z,3.45
2023-03-11T01:14:27.205Z,3.44
2023-03-11T01:15:26.288Z,3.44
2023-03-11T01:16:26.246Z,3.45
2023-03-11T01:17:26.255Z,3.44
2023-03-11T01:18:26.225Z,3.44
2023-03-11T01:19:26.235Z,3.44
2023-03-11T01:20:27.133Z,3.40
2023-03-11T01:21:27.154Z,3.36
2023-03-11T01:22:26.170Z,3.37
2023-03-11T01:23:26.152Z,3.34
2023-03-11T01:24:26.141Z,3.34
2023-03-11T01:25:26.228Z,3.28
2023-03-11T01:26:27.071Z,3.25
2023-03-11T01:27:26.130Z,3.22
2023-03-11T01:28:26.101Z,3.18
2023-03-11T01:29:26.110Z,3.16
2023-03-11T01:30:26.090Z,3.14
2023-03-11T01:31:27.027Z,3.16
2023-03-11T01:32:26.111Z,3.14
2023-03-11T01:33:26.072Z,3.16
2023-03-11T01:34:26.047Z,3.18
2023-03-11T01:35:26.167Z,3.19
2023-03-11T01:36:26.019Z,3.19
2023-03-11T01:37:26.954Z,3.22
2023-03-11T01:38:26.014Z,3.19
2023-03-11T01:39:25.961Z,3.18
2023-03-11T01:40:25.954Z,3.18
2023-03-11T01:41:25.952Z,3.19
2023-03-11T01:42:26.862Z,3.21
2023-03-11T01:43:25.910Z,3.19
2023-03-11T01:44:25.942Z,3.16
2023-03-11T01:45:25.895Z,3.16
2023-03-11T01:46:25.929Z,3.14
2023-03-11T01:47:26.811Z,3.11
2023-03-11T01:48:25.854Z,3.08
2023-03-11T01:49:25.836Z,3.08
2023-03-11T01:50:25.858Z,3.10
2023-03-11T01:51:25.810Z,3.10
2023-03-11T01:52:25.824Z,3.10
2023-03-11T01:53:26.702Z,3.11
2023-03-11T01:54:25.785Z,3.13
2023-03-11T01:55:25.786Z,3.11
2023-03-11T01:56:25.750Z,3.13
2023-03-11T01:57:25.712Z,3.10
2023-03-11T01:58:26.665Z,3.13
2023-03-11T01:59:25.708Z,3.11
2023-03-11T02:00:25.734Z,3.13
2023-03-11T02:01:25.735Z,3.13
2023-03-11T02:02:25.674Z,3.11
2023-03-11T02:03:25.665Z,3.11
2023-03-11T02:04:26.587Z,3.07
2023-03-11T02:05:25.656Z,3.04
2023-03-11T02:06:25.622Z,3.01
2023-03-11T02:07:25.628Z,2.97
2023-03-11T02:08:25.594Z,2.95
2023-03-11T02:09:26.499Z,2.87
2023-03-11T02:10:25.571Z,2.82
2023-03-11T02:11:25.588Z,2.79
2023-03-11T02:13:23.032Z,2.69
2023-03-11T02:14:23.952Z,2.67
2023-03-11T02:15:23.122Z,2.65
2023-03-11T02:16:23.028Z,2.60
2023-03-11T02:17:22.993Z,2.60
2023-03-11T02:18:22.980Z,2.61
2023-03-11T02:19:23.861Z,2.64
2023-03-11T02:20:22.983Z,2.62
2023-03-11T02:21:22.911Z,2.60
2023-03-11T02:22:22.904Z,2.60
2023-03-11T02:23:22.985Z,2.57
2023-03-11T02:24:22.885Z,2.60
2023-03-11T02:25:23.877Z,2.61
2023-03-11T02:26:22.943Z,2.56
2023-03-11T02:27:22.844Z,2.54
2023-03-11T02:28:22.861Z,2.51
2023-03-11T02:29:22.840Z,2.47
2023-03-11T02:30:22.838Z,2.44
2023-03-11T02:31:23.785Z,2.46
2023-03-11T02:32:22.885Z,2.47
2023-03-11T02:33:22.775Z,2.47
2023-03-11T02:34:22.773Z,2.44
2023-03-11T02:35:22.889Z,2.43
2023-03-11T02:36:23.668Z,2.43
2023-03-11T02:37:22.780Z,2.46
2023-03-11T02:38:22.719Z,2.43
2023-03-11T02:39:22.679Z,2.42
2023-03-11T02:40:22.716Z,2.42
2023-03-11T02:41:22.735Z,2.46
2023-03-11T02:42:23.618Z,2.46
2023-03-11T02:43:22.755Z,2.50
2023-03-11T02:44:22.770Z,2.51
2023-03-11T02:45:22.672Z,2.49
2023-03-11T02:46:22.653Z,2.49
2023-03-11T02:47:23.548Z,2.47
2023-03-11T02:48:22.689Z,2.43
2023-03-11T02:49:22.613Z,2.39
2023-03-11T02:50:22.586Z,2.39
2023-03-11T02:51:22.659Z,2.39
2023-03-11T02:52:22.581Z,2.43
2023-03-11T02:53:23.441Z,2.43
2023-03-11T02:54:22.528Z,2.42
2023-03-11T02:55:22.503Z,2.39
2023-03-11T02:56:22.494Z,2.38
2023-03-11T02:57:22.574Z,2.36
2023-03-11T02:58:23.398Z,2.33
2023-03-11T02:59:22.496Z,2.33
2023-03-11T03:00:22.453Z,2.33
2023-03-11T03:01:22.435Z,2.33
2023-03-11T03:02:22.436Z,2.32
2023-03-11T03:03:23.371Z,2.32
2023-03-11T03:04:22.415Z,2.33
2023-03-11T03:05:22.373Z,2.35
2023-03-11T03:06:22.414Z,2.38
2023-03-11T03:07:22.504Z,2.38
2023-03-11T03:08:23.322Z,2.39
2023-03-11T03:09:22.372Z,2.38
2023-03-11T03:10:22.513Z,2.42
2023-03-11T03:11:22.313Z,2.42
2023-03-11T03:12:22.368Z,2.42
2023-03-11T03:13:22.257Z,2.42
2023-03-11T03:14:23.187Z,2.42
2023-03-11T03:15:22.239Z,2.38
2023-03-11T03:16:22.329Z,2.42
2023-03-11T03:17:22.268Z,2.36
2023-03-11T03:18:22.303Z,2.33
2023-03-11T03:19:23.167Z,2.32
2023-03-11T03:20:22.271Z,2.29
2023-03-11T03:21:22.213Z,2.28
2023-03-11T03:22:22.193Z,2.26
2023-03-11T03:23:22.125Z,2.24
2023-03-11T03:24:23.169Z,2.17
2023-03-11T03:25:23.089Z,2.15
2023-03-11T03:26:22.119Z,2.14
2023-03-11T03:27:22.132Z,2.14
2023-03-11T03:28:22.108Z,2.17
2023-03-11T03:29:23.037Z,2.14
2023-03-11T03:30:22.078Z,2.10
2023-03-11T03:31:22.206Z,2.07
2023-03-11T03:32:22.121Z,2.00
2023-03-11T03:33:22.037Z,1.97
2023-03-11T03:34:22.073Z,1.95
2023-03-11T03:35:22.987Z,1.91
2023-03-11T03:36:21.987Z,1.85
2023-03-11T03:37:22.057Z,1.84
2023-03-11T03:38:21.968Z,1.84
2023-03-11T03:39:21.959Z,1.85
2023-03-11T03:40:22.844Z,1.89
2023-03-11T03:41:21.952Z,1.92
2023-03-11T03:42:21.914Z,1.88
2023-03-11T03:43:21.955Z,1.88
2023-03-11T03:44:21.915Z,1.89
2023-03-11T03:45:21.904Z,1.92
2023-03-11T03:46:22.858Z,1.94
2023-03-11T03:47:22.799Z,1.97
2023-03-11T03:48:21.873Z,1.94
2023-03-11T03:49:21.861Z,1.95
2023-03-11T03:50:21.806Z,1.97
2023-03-11T03:51:22.712Z,1.94
2023-03-11T03:52:21.798Z,1.94
2023-03-11T03:53:21.848Z,1.89
2023-03-11T03:54:21.787Z,1.87
2023-03-11T03:55:21.743Z,1.81
2023-03-11T03:56:21.739Z,1.81
2023-03-11T03:57:22.636Z,1.81
2023-03-11T03:58:21.704Z,1.80
2023-03-11T03:59:21.797Z,1.77
2023-03-11T04:00:21.702Z,1.73
2023-03-11T04:01:21.723Z,1.73
2023-03-11T04:02:21.740Z,1.73
2023-03-11T04:03:22.724Z,1.73
2023-03-11T04:04:21.705Z,1.76
2023-03-11T04:05:21.668Z,1.80
2023-03-11T04:06:21.683Z,1.84
2023-03-11T04:07:21.673Z,1.81
2023-03-11T04:08:21.592Z,1.84
2023-03-11T04:09:22.538Z,1.85
2023-03-11T04:10:21.685Z,1.84
2023-03-11T04:11:21.612Z,1.84
2023-03-11T04:12:21.534Z,1.85
2023-03-11T04:13:21.587Z,1.87
2023-03-11T04:14:22.526Z,1.88
2023-03-11T04:15:21.548Z,1.91
2023-03-11T04:16:21.598Z,1.91
2023-03-11T04:17:21.519Z,1.88
2023-03-11T04:18:21.544Z,1.78
2023-03-11T04:19:21.537Z,1.77
2023-03-11T04:20:22.454Z,1.77
2023-03-11T04:21:21.498Z,1.76
2023-03-11T04:22:21.447Z,1.78
2023-03-11T04:23:21.467Z,1.81
2023-03-11T04:24:21.395Z,1.81
2023-03-11T04:25:21.418Z,1.84
2023-03-11T04:26:22.494Z,1.81
2023-03-11T04:27:21.434Z,1.80
2023-03-11T04:28:21.403Z,1.68
2023-03-11T04:29:21.435Z,1.66
2023-03-11T04:30:21.550Z,1.66
2023-03-11T04:31:21.348Z,1.63
2023-03-11T04:32:22.270Z,1.62
2023-03-11T04:33:21.351Z,1.62
2023-03-11T04:34:21.267Z,1.60
2023-03-11T04:35:21.241Z,1.62
2023-03-11T04:36:22.266Z,1.67
2023-03-11T04:37:22.190Z,1.71
2023-03-11T04:38:21.296Z,1.73
2023-03-11T04:39:21.251Z,1.74
2023-03-11T04:40:21.206Z,1.73
2023-03-11T04:41:21.291Z,1.67
2023-03-11T04:42:22.141Z,1.68
2023-03-11T04:43:21.179Z,1.70
2023-03-11T04:44:21.182Z,1.74
2023-03-11T04:45:21.123Z,1.77
2023-03-11T04:46:21.161Z,1.80
2023-03-11T04:47:21.161Z,1.78
2023-03-11T04:48:22.074Z,1.77
2023-03-11T04:49:21.066Z,1.74
2023-03-11T04:50:21.122Z,1.71
2023-03-11T04:51:21.056Z,1.73
2023-03-11T04:52:21.051Z,1.70
2023-03-11T04:53:21.977Z,1.68
2023-03-11T04:54:21.001Z,1.70
2023-03-11T04:55:21.007Z,1.70
2023-03-11T04:56:21.003Z,1.67
2023-03-11T04:57:20.980Z,1.67
2023-03-11T04:58:20.971Z,1.68
2023-03-11T04:59:21.906Z,1.70
2023-03-11T05:00:20.967Z,1.73
2023-03-11T05:01:21.008Z,1.71
2023-03-11T05:02:21.859Z,1.71
2023-03-11T05:03:21.139Z,1.70
2023-03-11T05:04:20.971Z,1.73
2023-03-11T05:05:21.842Z,1.73
2023-03-11T05:06:20.932Z,1.74
2023-03-11T05:07:21.824Z,1.77
2023-03-11T05:08:20.836Z,1.81
2023-03-11T05:09:20.863Z,1.84
2023-03-11T05:10:20.799Z,1.87
2023-03-11T05:11:21.826Z,1.91
2023-03-11T05:12:20.823Z,1.95
2023-03-11T05:13:20.807Z,2.00
2023-03-11T05:14:20.938Z,2.07
2023-03-11T05:15:20.786Z,2.08
2023-03-11T05:16:21.864Z,2.08
2023-03-11T05:17:20.782Z,2.10
2023-03-11T05:18:20.757Z,2.13
2023-03-11T05:19:20.940Z,2.13
2023-03-11T05:20:20.746Z,2.13
2023-03-11T05:21:21.628Z,2.07
2023-03-11T05:22:20.666Z,2.00
2023-03-11T05:23:20.658Z,1.99
2023-03-11T05:24:20.634Z,1.99
2023-03-11T05:25:20.689Z,1.95
2023-03-11T05:26:20.652Z,1.91
2023-03-11T05:27:21.536Z,1.88
2023-03-11T05:28:20.593Z,1.88
2023-03-11T05:29:20.591Z,1.91
2023-03-11T05:30:20.646Z,1.97
2023-03-11T05:31:20.626Z,2.00
2023-03-11T05:32:22.595Z,2.02
2023-03-11T05:33:20.543Z,2.04
2023-03-11T05:34:20.553Z,2.04
2023-03-11T05:35:20.589Z,2.02
2023-03-11T05:36:20.512Z,1.99
2023-03-11T05:37:21.460Z,1.94
2023-03-11T05:38:20.501Z,1.95
2023-03-11T05:39:20.492Z,1.99
2023-03-11T05:40:20.485Z,2.02
2023-03-11T05:41:20.466Z,2.06
2023-03-11T05:42:21.555Z,2.08
2023-03-11T05:43:21.400Z,2.13
2023-03-11T05:44:20.400Z,2.10
2023-03-11T05:45:20.416Z,2.08
2023-03-11T05:46:20.472Z,2.10
2023-03-11T05:47:21.378Z,2.08
2023-03-11T05:48:21.349Z,2.00
2023-03-11T05:49:20.345Z,1.99
2023-03-11T05:50:20.324Z,2.02
2023-03-11T05:51:20.367Z,2.06
2023-03-11T05:52:20.333Z,2.10
2023-03-11T05:53:21.395Z,2.13
2023-03-11T05:54:20.272Z,2.17
2023-03-11T05:55:21.227Z,2.24
2023-03-11T05:56:20.278Z,2.25
2023-03-11T05:57:20.278Z,2.25
2023-03-11T05:58:21.275Z,2.31
2023-03-11T05:59:20.212Z,2.33
2023-03-11T06:00:20.206Z,2.32
2023-03-11T06:01:20.213Z,2.29
2023-03-11T06:02:20.361Z,2.29
2023-03-11T06:03:21.139Z,2.28
2023-03-11T06:04:20.237Z,2.28
2023-03-11T06:05:21.153Z,2.29
2023-03-11T06:06:20.133Z,2.29
2023-03-11T06:07:20.122Z,2.31
2023-03-11T06:08:21.035Z,2.31
2023-03-11T06:09:20.136Z,2.33
2023-03-11T06:10:20.091Z,2.33
2023-03-11T06:11:20.053Z,2.32
2023-03-11T06:12:20.084Z,2.29
2023-03-11T06:13:20.074Z,2.22
2023-03-11T06:14:20.949Z,2.17
2023-03-11T06:15:20.036Z,2.11
2023-03-11T06:16:20.066Z,2.07
2023-03-11T06:17:20.004Z,2.08
2023-03-11T06:18:19.979Z,2.06
2023-03-11T06:19:19.978Z,2.10
2023-03-11T06:20:20.938Z,2.10
2023-03-11T06:21:19.960Z,2.07
2023-03-11T06:22:19.972Z,2.02
2023-03-11T06:23:20.036Z,2.02
2023-03-11T06:24:19.933Z,1.97
2023-03-11T06:25:20.975Z,1.95
2023-03-11T06:26:19.901Z,1.95
2023-03-11T06:27:20.126Z,1.99
2023-03-11T06:28:19.920Z,1.89
2023-03-11T06:29:19.987Z,1.85
2023-03-11T06:30:20.773Z,1.87
2023-03-11T06:31:19.935Z,1.81
2023-03-11T06:32:19.857Z,1.80
2023-03-11T06:33:19.800Z,1.78
2023-03-11T06:34:19.806Z,1.78
2023-03-11T06:35:20.772Z,1.78
2023-03-11T06:36:19.785Z,1.81
2023-03-11T06:37:19.798Z,1.87
2023-03-11T06:38:19.828Z,1.89
2023-03-11T06:39:19.748Z,1.87
2023-03-11T06:40:19.721Z,1.87
2023-03-11T06:41:21.725Z,1.89
2023-03-11T06:42:19.729Z,1.92
2023-03-11T06:43:19.762Z,1.99
2023-03-11T06:44:19.651Z,2.06
2023-03-11T06:45:20.683Z,2.11
2023-03-11T06:46:20.646Z,2.17
2023-03-11T06:47:19.697Z,2.18
2023-03-11T06:48:19.603Z,2.11
2023-03-11T06:49:19.603Z,2.08
2023-03-11T06:50:19.582Z,2.10
2023-03-11T06:51:19.710Z,2.08
2023-03-11T06:52:20.477Z,2.13
2023-03-11T06:53:19.557Z,2.18
2023-03-11T06:54:20.495Z,2.26
2023-03-11T06:55:19.512Z,2.24
2023-03-11T06:56:19.556Z,2.20
2023-03-11T06:57:20.442Z,2.24
2023-03-11T06:58:19.498Z,2.26
2023-03-11T06:59:19.470Z,2.28
2023-03-11T07:00:19.440Z,2.28
2023-03-11T07:01:19.541Z,2.32
2023-03-11T07:02:19.506Z,2.33
2023-03-11T07:03:20.361Z,2.32
2023-03-11T07:04:19.483Z,2.31
2023-03-11T07:05:19.403Z,2.31
2023-03-11T07:06:19.429Z,2.28
2023-03-11T07:07:19.350Z,2.26
2023-03-11T07:08:20.462Z,2.26
2023-03-11T07:09:19.378Z,2.28
2023-03-11T07:10:19.339Z,2.31
2023-03-11T07:11:19.306Z,2.29
2023-03-11T07:12:19.370Z,2.25
2023-03-11T07:13:19.282Z,2.20
2023-03-11T07:14:20.563Z,2.15
2023-03-11T07:15:19.239Z,2.14
2023-03-11T07:16:19.470Z,2.14
2023-03-11T07:17:19.289Z,2.17
2023-03-11T07:18:20.047Z,2.20
2023-03-11T07:19:21.128Z,2.24
2023-03-11T07:20:20.288Z,2.28
2023-03-11T07:21:19.184Z,2.33
2023-03-11T07:22:19.297Z,2.36
2023-03-11T07:23:19.149Z,2.38
2023-03-11T07:24:19.156Z,2.33
2023-03-11T07:25:19.561Z,2.35
2023-03-11T07:26:20.207Z,2.38
2023-03-11T07:27:19.783Z,2.42
2023-03-11T07:28:19.126Z,2.46
2023-03-11T07:29:19.776Z,2.50
2023-03-11T07:30:19.409Z,2.54
2023-03-11T07:31:20.078Z,2.53
2023-03-11T07:32:19.165Z,2.50
2023-03-11T07:33:19.050Z,2.51
2023-03-11T07:34:19.056Z,2.57
2023-03-11T07:35:19.323Z,2.60
2023-03-11T07:36:19.021Z,2.62
2023-03-11T07:37:19.946Z,2.64
2023-03-11T07:38:19.027Z,2.67
2023-03-11T07:39:19.069Z,2.68
2023-03-11T07:40:18.953Z,2.62
2023-03-11T07:41:18.934Z,2.56
2023-03-11T07:42:19.825Z,2.51
2023-03-11T07:43:18.885Z,2.50
2023-03-11T07:44:18.905Z,2.51
2023-03-11T07:45:18.928Z,2.54
2023-03-11T07:46:18.934Z,2.61
2023-03-11T07:47:20.866Z,2.68
2023-03-11T07:48:18.823Z,2.74
2023-03-11T07:49:19.013Z,2.80
2023-03-11T07:50:18.801Z,2.93
2023-03-11T07:51:18.828Z,2.98
2023-03-11T07:52:19.754Z,2.95
2023-03-11T07:53:18.752Z,2.97
2023-03-11T07:54:18.763Z,2.97
2023-03-11T07:55:18.970Z,3.00
2023-03-11T07:56:18.765Z,3.04
2023-03-11T07:57:19.834Z,3.08
2023-03-11T07:58:19.442Z,3.14
2023-03-11T07:59:18.729Z,3.19
2023-03-11T08:00:18.689Z,3.22
2023-03-11T08:01:18.712Z,3.31
2023-03-11T08:02:19.707Z,3.31
2023-03-11T08:03:18.750Z,3.32
2023-03-11T08:04:18.624Z,3.25
2023-03-11T08:05:18.645Z,3.23
2023-03-11T08:06:18.630Z,3.26
2023-03-11T08:07:19.550Z,3.26
2023-03-11T08:08:18.592Z,3.22
2023-03-11T08:09:18.635Z,3.29
2023-03-11T08:10:18.589Z,3.32
2023-03-11T08:11:18.680Z,3.40
2023-03-11T08:12:20.576Z,3.47
2023-03-11T08:13:18.561Z,3.56
2023-03-11T08:14:18.659Z,3.56
2023-03-11T08:15:18.502Z,3.55
2023-03-11T08:16:18.479Z,3.59
2023-03-11T08:17:18.477Z,3.53
2023-03-11T08:18:24.840Z,3.55
2023-03-11T08:19:18.554Z,3.55
2023-03-11T08:20:18.473Z,3.62
2023-03-11T08:21:18.409Z,3.66
2023-03-11T08:22:18.481Z,3.76
2023-03-11T08:23:19.365Z,3.77
2023-03-11T08:24:18.399Z,3.91
2023-03-11T08:25:18.369Z,4.02
2023-03-11T08:26:18.347Z,4.04
2023-03-11T08:27:18.350Z,4.06
2023-03-11T08:28:18.424Z,4.01
2023-03-11T08:29:19.248Z,3.98
2023-03-11T08:30:18.308Z,3.87
2023-03-11T08:31:18.372Z,3.74
2023-03-11T08:32:18.391Z,3.58
2023-03-11T08:33:19.200Z,3.55
2023-03-11T08:34:19.178Z,3.60
2023-03-11T08:35:18.259Z,3.60
2023-03-11T08:36:18.310Z,3.66
2023-03-11T08:37:18.268Z,3.74
2023-03-11T08:38:18.895Z,3.77
2023-03-11T08:39:18.338Z,3.83
2023-03-11T08:40:19.223Z,3.83
2023-03-11T08:41:18.230Z,3.81
2023-03-11T08:42:18.163Z,3.84
2023-03-11T08:43:18.199Z,3.88
2023-03-11T08:44:18.154Z,3.83
2023-03-11T08:45:24.435Z,3.84
2023-03-11T08:46:19.197Z,3.88
2023-03-11T08:47:18.110Z,3.95
2023-03-11T08:48:18.111Z,4.02
2023-03-11T08:49:18.080Z,4.05
2023-03-11T08:50:19.019Z,4.05
2023-03-11T08:51:18.144Z,4.10
2023-03-11T08:52:18.045Z,4.16
2023-03-11T08:53:18.035Z,4.20
2023-03-11T08:54:18.018Z,4.13
2023-03-11T08:55:18.985Z,4.12
2023-03-11T08:56:18.068Z,4.02
2023-03-11T08:57:17.977Z,3.92
2023-03-11T08:58:18.010Z,3.80
2023-03-11T08:59:17.952Z,3.77
2023-03-11T09:00:18.916Z,3.69
2023-03-11T09:01:17.925Z,3.60
2023-03-11T09:02:18.062Z,3.51
2023-03-11T09:03:17.944Z,3.55
2023-03-11T09:04:17.926Z,3.51
2023-03-11T09:05:17.896Z,3.56
2023-03-11T09:06:18.839Z,3.60
2023-03-11T09:07:17.911Z,3.60
2023-03-11T09:08:17.840Z,3.59
2023-03-11T09:09:18.817Z,3.48
2023-03-11T09:10:17.835Z,3.40
2023-03-11T09:11:18.749Z,3.36
2023-03-11T09:12:17.846Z,3.41
2023-03-11T09:13:17.769Z,3.50
2023-03-11T09:14:17.793Z,3.56
2023-03-11T09:15:17.836Z,3.68
2023-03-11T09:16:17.885Z,3.78
2023-03-11T09:17:18.644Z,3.83
2023-03-11T09:18:17.954Z,3.94
2023-03-11T09:19:17.737Z,4.02
2023-03-11T09:20:17.734Z,4.13
2023-03-11T09:21:17.695Z,4.26
2023-03-11T09:22:18.773Z,4.34
2023-03-11T09:23:19.460Z,4.40
2023-03-11T09:24:17.670Z,4.34
2023-03-11T09:25:17.630Z,4.26
2023-03-11T09:26:17.641Z,4.22
2023-03-11T09:27:17.862Z,4.12
2023-03-11T09:28:18.599Z,4.08
2023-03-11T09:29:17.654Z,4.06
2023-03-11T09:30:18.512Z,4.06
2023-03-11T09:31:17.642Z,4.02
2023-03-11T09:32:17.608Z,3.98
2023-03-11T09:33:18.489Z,3.92
2023-03-11T09:35:15.420Z,3.84
2023-03-11T09:36:15.385Z,3.83
2023-03-11T09:37:15.518Z,3.81
2023-03-11T09:38:15.406Z,3.83
2023-03-11T09:39:16.297Z,3.84
2023-03-11T09:40:15.364Z,3.83
2023-03-11T09:41:15.312Z,3.86
2023-03-11T09:42:15.318Z,3.87
2023-03-11T09:43:15.328Z,3.81
2023-03-11T09:44:16.278Z,3.70
2023-03-11T09:45:15.303Z,3.59
2023-03-11T09:46:15.340Z,3.50
2023-03-11T09:47:15.286Z,3.37
2023-03-11T09:48:15.254Z,3.32
2023-03-11T09:49:16.240Z,3.31
2023-03-11T09:50:15.301Z,3.32
2023-03-11T09:51:15.194Z,3.36
2023-03-11T09:52:15.274Z,3.28
2023-03-11T09:53:15.199Z,3.23
2023-03-11T09:54:15.218Z,3.21
2023-03-11T09:55:16.266Z,3.22
2023-03-11T09:56:15.149Z,3.22
2023-03-11T09:57:15.187Z,3.28
2023-03-11T09:58:15.150Z,3.31
2023-03-11T09:59:15.089Z,3.29
2023-03-11T10:00:16.029Z,3.31
2023-03-11T10:01:15.099Z,3.36
2023-03-11T10:02:15.147Z,3.44
2023-03-11T10:03:15.116Z,3.48
2023-03-11T10:04:15.538Z,3.44
2023-03-11T10:05:15.042Z,3.36
2023-03-11T10:06:15.958Z,3.29
2023-03-11T10:07:15.042Z,3.26
2023-03-11T10:08:15.018Z,3.29
2023-03-11T10:09:14.982Z,3.34
2023-03-11T10:10:14.971Z,3.34
2023-03-11T10:11:15.905Z,3.41
2023-03-11T10:12:14.948Z,3.45
2023-03-11T10:13:14.940Z,3.50
2023-03-11T10:14:14.929Z,3.53
2023-03-11T10:15:14.898Z,3.58
2023-03-11T10:16:14.936Z,3.65
2023-03-11T10:17:15.814Z,3.70
2023-03-11T10:18:14.854Z,3.65
2023-03-11T10:19:14.868Z,3.65
2023-03-11T10:20:14.834Z,3.74
2023-03-11T10:21:14.866Z,3.76
2023-03-11T10:22:15.760Z,3.92
2023-03-11T10:23:14.804Z,4.22
2023-03-11T10:24:18.708Z,4.44
2023-03-11T10:25:14.813Z,4.73
2023-03-11T10:26:14.798Z,4.80
2023-03-11T10:27:14.763Z,5.08
2023-03-11T10:28:15.667Z,5.23
2023-03-11T10:29:14.766Z,5.28
2023-03-11T10:30:14.727Z,5.44
2023-03-11T10:31:14.759Z,5.54
2023-03-11T10:32:14.753Z,5.44
2023-03-11T10:33:15.622Z,5.39
2023-03-11T10:34:14.653Z,5.23
2023-03-11T10:35:14.652Z,5.25
2023-03-11T10:36:14.636Z,5.33
2023-03-11T10:37:16.431Z,5.20
2023-03-11T10:38:15.573Z,4.96
2023-03-11T10:39:14.585Z,4.77
2023-03-11T10:40:14.582Z,4.58
2023-03-11T10:41:14.579Z,4.44
2023-03-11T10:42:14.588Z,4.19
2023-03-11T10:43:14.558Z,4.01
2023-03-11T10:44:15.464Z,3.92
2023-03-11T10:45:14.525Z,3.92
2023-03-11T10:46:14.622Z,3.94
2023-03-11T10:47:14.525Z,4.06
2023-03-11T10:48:14.484Z,4.31
2023-03-11T10:49:14.526Z,4.38
2023-03-11T10:50:15.420Z,4.44
2023-03-11T10:51:14.447Z,4.49
2023-03-11T10:52:14.528Z,4.52
2023-03-11T10:53:14.403Z,4.68
2023-03-11T10:54:14.392Z,4.71
2023-03-11T10:55:15.340Z,4.73
2023-03-11T10:56:16.062Z,4.80
2023-03-11T10:57:14.351Z,4.84
2023-03-11T10:58:14.384Z,4.80
2023-03-11T10:59:14.330Z,4.78
2023-03-11T11:00:14.381Z,4.82
2023-03-11T11:01:15.287Z,4.90
2023-03-11T11:02:14.279Z,4.87
2023-03-11T11:03:14.292Z,4.90
2023-03-11T11:04:14.322Z,4.89
2023-03-11T11:05:14.254Z,4.90
2023-03-11T11:06:15.222Z,4.86
2023-03-11T11:07:14.237Z,4.80
2023-03-11T11:08:14.221Z,4.78
2023-03-11T11:09:14.212Z,4.71
2023-03-11T11:10:14.365Z,4.71
2023-03-11T11:11:14.172Z,4.67
2023-03-11T11:12:15.097Z,4.66
2023-03-11T11:13:14.196Z,4.67
2023-03-11T11:14:14.161Z,4.78
2023-03-11T11:15:14.128Z,4.97
2023-03-11T11:16:14.152Z,5.05
2023-03-11T11:17:14.117Z,5.26
2023-03-11T11:18:15.061Z,5.29
2023-03-11T11:19:14.095Z,5.36
2023-03-11T11:20:14.088Z,5.51
2023-03-11T11:21:14.057Z,5.46
2023-03-11T11:22:14.048Z,5.33
2023-03-11T11:23:14.964Z,5.18
2023-03-11T11:24:14.039Z,5.10
2023-03-11T11:25:14.091Z,4.96
2023-03-11T11:26:13.996Z,4.66
2023-03-11T11:27:13.987Z,4.48
2023-03-11T11:28:13.978Z,4.45
2023-03-11T11:29:14.912Z,4.49
2023-03-11T11:30:13.925Z,4.62
2023-03-11T11:31:13.942Z,4.78
2023-03-11T11:32:13.964Z,4.92
2023-03-11T11:33:13.897Z,4.94
2023-03-11T11:34:13.929Z,4.97
2023-03-11T11:35:14.833Z,5.00
2023-03-11T11:36:13.871Z,4.75
2023-03-11T11:37:13.834Z,4.34
2023-03-11T11:38:13.845Z,4.14
2023-03-11T11:39:13.852Z,4.10
2023-03-11T11:40:13.850Z,4.14
2023-03-11T11:41:14.741Z,4.22
2023-03-11T11:42:13.792Z,4.55
2023-03-11T11:43:13.775Z,4.75
2023-03-11T11:44:13.752Z,4.99
2023-03-11T11:45:13.774Z,5.18
2023-03-11T11:46:13.747Z,5.20
2023-03-11T11:47:14.648Z,5.18
2023-03-11T11:48:13.732Z,4.92
2023-03-11T11:49:13.692Z,4.75
2023-03-11T11:50:13.677Z,4.86
2023-03-11T11:51:13.812Z,4.89
2023-03-11T11:52:13.699Z,4.96
2023-03-11T11:53:14.625Z,4.90
2023-03-11T11:54:13.638Z,5.00
2023-03-11T11:55:13.626Z,5.10
2023-03-11T11:56:13.618Z,5.38
2023-03-11T11:57:13.618Z,5.29
2023-03-11T11:58:14.506Z,5.30
2023-03-11T11:59:13.602Z,5.50
2023-03-11T12:00:13.591Z,5.86
2023-03-11T12:01:13.536Z,6.35
2023-03-11T12:02:13.517Z,6.33
2023-03-11T12:03:14.438Z,6.35
2023-03-11T12:04:13.498Z,6.64
2023-03-11T12:05:13.543Z,6.93
2023-03-11T12:06:13.562Z,7.18
2023-03-11T12:07:13.447Z,7.29
2023-03-11T12:08:14.411Z,6.82
2023-03-11T12:09:13.446Z,6.75
2023-03-11T12:10:22.770Z,6.92
2023-03-11T12:11:14.945Z,7.03
2023-03-11T12:12:13.389Z,6.78
2023-03-11T12:13:14.328Z,6.31
2023-03-11T12:14:13.367Z,6.12
2023-03-11T12:15:13.359Z,5.90
2023-03-11T12:16:13.411Z,6.26
2023-03-11T12:17:13.338Z,6.33
2023-03-11T12:18:14.248Z,6.31
2023-03-11T12:19:13.322Z,6.62
2023-03-11T12:20:13.283Z,6.70
2023-03-11T12:21:13.289Z,6.63
2023-03-11T12:22:13.268Z,6.36
2023-03-11T12:23:16.007Z,6.22
2023-03-11T12:24:13.255Z,6.09
2023-03-11T12:25:13.219Z,5.89
2023-03-11T12:26:13.229Z,5.66
2023-03-11T12:27:13.208Z,5.50
2023-03-11T12:28:13.187Z,5.26
2023-03-11T12:29:16.074Z,4.80
2023-03-11T12:30:13.156Z,4.55
2023-03-11T12:31:13.195Z,4.48
2023-03-11T12:32:13.177Z,4.48
2023-03-11T12:33:13.114Z,4.55
2023-03-11T12:34:13.120Z,4.56
2023-03-11T12:35:14.033Z,4.49
2023-03-11T12:36:13.143Z,4.38
2023-03-11T12:37:13.077Z,4.38
2023-03-11T12:38:13.050Z,4.30
2023-03-11T12:39:13.093Z,4.52
2023-03-11T12:40:13.102Z,4.60
2023-03-11T12:41:13.992Z,4.67
2023-03-11T12:42:12.998Z,4.78
2023-03-11T12:43:12.991Z,5.12
2023-03-11T12:44:12.997Z,5.57
2023-03-11T12:45:12.966Z,5.83
2023-03-11T12:46:13.977Z,5.79
2023-03-11T12:47:12.933Z,5.72
2023-03-11T12:48:12.975Z,5.71
2023-03-11T12:49:13.024Z,5.65
2023-03-11T12:50:12.914Z,5.68
2023-03-11T12:51:12.888Z,5.76
2023-03-11T12:52:13.849Z,5.80
2023-03-11T12:53:13.699Z,5.80
2023-03-11T12:54:12.887Z,5.80
2023-03-11T12:55:12.861Z,5.82
2023-03-11T12:56:12.817Z,5.84
2023-03-11T12:57:13.729Z,5.91
2023-03-11T12:58:12.815Z,6.01
2023-03-11T12:59:12.783Z,6.08
2023-03-11T13:00:12.845Z,6.41
2023-03-11T13:01:12.782Z,6.48
2023-03-11T13:02:12.736Z,6.48
2023-03-11T13:03:13.814Z,6.38
2023-03-11T13:04:12.732Z,6.30
2023-03-11T13:05:12.728Z,6.26
2023-03-11T13:06:12.757Z,6.20
2023-03-11T13:07:12.689Z,6.17
2023-03-11T13:08:12.676Z,6.04
2023-03-11T13:09:13.668Z,5.87
2023-03-11T13:10:12.673Z,5.73
2023-03-11T13:11:12.618Z,5.56
2023-03-11T13:12:12.617Z,5.36
2023-03-11T13:13:12.591Z,5.38
2023-03-11T13:14:12.628Z,5.72
2023-03-11T13:15:13.531Z,5.89
2023-03-11T13:16:12.650Z,6.09
2023-03-11T13:17:12.537Z,6.30
2023-03-11T13:18:12.578Z,6.16
2023-03-11T13:19:12.602Z,5.99
2023-03-11T13:20:12.536Z,5.73